sensor_id;sensor_type;location;lat;lon;timestamp;P1;durP1;ratioP1;P2;durP2;ratioP2
62457;SDS011;48509;52.122;5.250;2024-01-27T00:00:16;24.4;;;8.5;;
62457;SDS011;48509;52.122;5.250;2024-01-27T00:03:34;34.9;;;8.4;;
62457;SDS011;48509;52.122;5.250;2024-01-27T00:05:10;34.9;;;8.4;;
62457;SDS011;48509;52.122;5.250;2024-01-27T00:06:46;21.0;;;7.1;;
62457;SDS011;48509;52.122;5.250;2024-01-27T00:08:22;24.0;;;8.0;;
62457;SDS011;48509;52.122;5.250;2024-01-27T00:11:34;20.0;;;7.5;;
62457;SDS011;48509;52.122;5.250;2024-01-27T00:13:11;20.7;;;8.2;;
62457;SDS011;48509;52.122;5.250;2024-01-27T00:14:47;25.4;;;8.2;;
62457;SDS011;48509;52.122;5.250;2024-01-27T00:17:59;26.9;;;7.7;;
62457;SDS011;48509;52.122;5.250;2024-01-27T00:19:35;29.4;;;9.1;;
62457;SDS011;48509;52.122;5.250;2024-01-27T00:21:11;26.0;;;7.6;;
62457;SDS011;48509;52.122;5.250;2024-01-27T00:24:23;20.2;;;7.2;;
62457;SDS011;48509;52.122;5.250;2024-01-27T00:26:00;20.2;;;7.2;;
62457;SDS011;48509;52.122;5.250;2024-01-27T00:27:36;23.5;;;7.7;;
62457;SDS011;48509;52.122;5.250;2024-01-27T00:29:12;17.0;;;6.9;;
62457;SDS011;48509;52.122;5.250;2024-01-27T00:32:24;23.5;;;7.2;;
62457;SDS011;48509;52.122;5.250;2024-01-27T00:34:00;25.0;;;7.6;;
62457;SDS011;48509;52.122;5.250;2024-01-27T00:35:36;20.9;;;7.6;;
62457;SDS011;48509;52.122;5.250;2024-01-27T00:38:48;33.0;;;8.81;;
62457;SDS011;48509;52.122;5.250;2024-01-27T00:40:25;18.41;;;6.8;;
62457;SDS011;48509;52.122;5.250;2024-01-27T00:42:01;26.9;;;8.1;;
62457;SDS011;48509;52.122;5.250;2024-01-27T00:45:13;25.2;;;8.6;;
62457;SDS011;48509;52.122;5.250;2024-01-27T00:46:49;20.9;;;7.1;;
62457;SDS011;48509;52.122;5.250;2024-01-27T00:48:25;21.9;;;7.6;;
62457;SDS011;48509;52.122;5.250;2024-01-27T00:51:37;17.11;;;7.2;;
62457;SDS011;48509;52.122;5.250;2024-01-27T00:53:13;22.2;;;8.0;;
62457;SDS011;48509;52.122;5.250;2024-01-27T00:54:50;19.41;;;6.9;;
62457;SDS011;48509;52.122;5.250;2024-01-27T00:56:26;25.9;;;7.6;;
62457;SDS011;48509;52.122;5.250;2024-01-27T00:59:38;21.6;;;7.3;;
62457;SDS011;48509;52.122;5.250;2024-01-27T01:01:14;28.5;;;8.5;;
62457;SDS011;48509;52.122;5.250;2024-01-27T01:02:50;29.4;;;9.31;;
62457;SDS011;48509;52.122;5.250;2024-01-27T01:06:02;27.7;;;8.2;;
62457;SDS011;48509;52.122;5.250;2024-01-27T01:07:38;19.2;;;7.5;;
62457;SDS011;48509;52.122;5.250;2024-01-27T01:09:15;21.8;;;7.4;;
62457;SDS011;48509;52.122;5.250;2024-01-27T01:12:27;27.8;;;7.8;;
62457;SDS011;48509;52.122;5.250;2024-01-27T01:14:03;21.9;;;7.2;;
62457;SDS011;48509;52.122;5.250;2024-01-27T01:15:39;28.1;;;7.1;;
62457;SDS011;48509;52.122;5.250;2024-01-27T01:18:51;26.3;;;8.31;;
62457;SDS011;48509;52.122;5.250;2024-01-27T01:20:27;26.9;;;8.6;;
62457;SDS011;48509;52.122;5.250;2024-01-27T01:22:04;28.7;;;7.9;;
62457;SDS011;48509;52.122;5.250;2024-01-27T01:23:40;27.5;;;8.1;;
62457;SDS011;48509;52.122;5.250;2024-01-27T01:26:52;25.8;;;7.7;;
62457;SDS011;48509;52.122;5.250;2024-01-27T01:28:28;23.3;;;8.2;;
62457;SDS011;48509;52.122;5.250;2024-01-27T01:33:17;16.5;;;6.5;;
62457;SDS011;48509;52.122;5.250;2024-01-27T01:34:53;22.6;;;8.31;;
62457;SDS011;48509;52.122;5.250;2024-01-27T01:36:30;17.3;;;6.5;;
62457;SDS011;48509;52.122;5.250;2024-01-27T01:39:42;28.1;;;7.7;;
62457;SDS011;48509;52.122;5.250;2024-01-27T01:41:18;22.2;;;7.0;;
62457;SDS011;48509;52.122;5.250;2024-01-27T01:42:54;33.6;;;8.31;;
62457;SDS011;48509;52.122;5.250;2024-01-27T01:44:30;21.5;;;6.4;;
62457;SDS011;48509;52.122;5.250;2024-01-27T01:47:44;35.31;;;7.1;;
62457;SDS011;48509;52.122;5.250;2024-01-27T01:49:20;35.31;;;7.1;;
62457;SDS011;48509;52.122;5.250;2024-01-27T01:50:56;24.1;;;7.0;;
62457;SDS011;48509;52.122;5.250;2024-01-27T01:54:09;28.6;;;7.6;;
62457;SDS011;48509;52.122;5.250;2024-01-27T01:55:46;22.8;;;7.1;;
62457;SDS011;48509;52.122;5.250;2024-01-27T01:57:22;20.3;;;6.5;;
62457;SDS011;48509;52.122;5.250;2024-01-27T02:00:35;16.9;;;6.5;;
62457;SDS011;48509;52.122;5.250;2024-01-27T02:02:11;20.9;;;6.8;;
62457;SDS011;48509;52.122;5.250;2024-01-27T02:03:51;23.4;;;7.6;;
62457;SDS011;48509;52.122;5.250;2024-01-27T02:05:28;19.5;;;6.3;;
62457;SDS011;48509;52.122;5.250;2024-01-27T02:08:43;24.2;;;7.7;;
62457;SDS011;48509;52.122;5.250;2024-01-27T02:10:19;26.1;;;7.8;;
62457;SDS011;48509;52.122;5.250;2024-01-27T02:11:55;22.7;;;6.6;;
62457;SDS011;48509;52.122;5.250;2024-01-27T02:15:09;27.1;;;8.31;;
62457;SDS011;48509;52.122;5.250;2024-01-27T02:16:46;21.3;;;7.1;;
62457;SDS011;48509;52.122;5.250;2024-01-27T02:18:22;27.1;;;7.1;;
62457;SDS011;48509;52.122;5.250;2024-01-27T02:21:34;24.6;;;7.4;;
62457;SDS011;48509;52.122;5.250;2024-01-27T02:23:10;23.4;;;6.6;;
62457;SDS011;48509;52.122;5.250;2024-01-27T02:24:46;23.3;;;6.6;;
62457;SDS011;48509;52.122;5.250;2024-01-27T02:29:35;22.8;;;6.7;;
62457;SDS011;48509;52.122;5.250;2024-01-27T02:31:11;20.41;;;6.2;;
62457;SDS011;48509;52.122;5.250;2024-01-27T02:32:50;27.5;;;7.0;;
62457;SDS011;48509;52.122;5.250;2024-01-27T02:36:03;24.7;;;7.0;;
62457;SDS011;48509;52.122;5.250;2024-01-27T02:37:39;25.7;;;7.1;;
62457;SDS011;48509;52.122;5.250;2024-01-27T02:39:15;29.8;;;6.7;;
62457;SDS011;48509;52.122;5.250;2024-01-27T02:42:28;27.9;;;6.8;;
62457;SDS011;48509;52.122;5.250;2024-01-27T02:44:04;23.8;;;7.0;;
62457;SDS011;48509;52.122;5.250;2024-01-27T02:45:40;22.9;;;7.3;;
62457;SDS011;48509;52.122;5.250;2024-01-27T02:47:16;22.3;;;6.4;;
62457;SDS011;48509;52.122;5.250;2024-01-27T02:50:28;23.9;;;6.4;;
62457;SDS011;48509;52.122;5.250;2024-01-27T02:52:04;16.3;;;5.8;;
62457;SDS011;48509;52.122;5.250;2024-01-27T02:53:40;18.7;;;6.0;;
62457;SDS011;48509;52.122;5.250;2024-01-27T02:56:53;19.5;;;5.7;;
62457;SDS011;48509;52.122;5.250;2024-01-27T02:58:29;20.3;;;6.0;;
62457;SDS011;48509;52.122;5.250;2024-01-27T03:00:05;19.11;;;6.0;;
62457;SDS011;48509;52.122;5.250;2024-01-27T03:03:18;16.3;;;5.5;;
62457;SDS011;48509;52.122;5.250;2024-01-27T03:04:54;24.3;;;5.9;;
62457;SDS011;48509;52.122;5.250;2024-01-27T03:06:30;24.5;;;5.5;;
62457;SDS011;48509;52.122;5.250;2024-01-27T03:09:46;19.7;;;5.9;;
62457;SDS011;48509;52.122;5.250;2024-01-27T03:11:22;15.0;;;5.7;;
62457;SDS011;48509;52.122;5.250;2024-01-27T03:12:58;22.8;;;5.9;;
62457;SDS011;48509;52.122;5.250;2024-01-27T03:14:34;16.4;;;5.4;;
62457;SDS011;48509;52.122;5.250;2024-01-27T03:17:46;20.0;;;5.7;;
62457;SDS011;48509;52.122;5.250;2024-01-27T03:19:22;25.1;;;6.2;;
62457;SDS011;48509;52.122;5.250;2024-01-27T03:20:59;19.5;;;6.0;;
62457;SDS011;48509;52.122;5.250;2024-01-27T03:24:11;20.3;;;5.2;;
62457;SDS011;48509;52.122;5.250;2024-01-27T03:25:47;17.3;;;4.7;;
62457;SDS011;48509;52.122;5.250;2024-01-27T03:27:23;16.5;;;5.8;;
62457;SDS011;48509;52.122;5.250;2024-01-27T03:30:35;25.8;;;5.9;;
62457;SDS011;48509;52.122;5.250;2024-01-27T03:32:11;22.6;;;5.3;;
62457;SDS011;48509;52.122;5.250;2024-01-27T03:33:47;23.0;;;5.4;;
62457;SDS011;48509;52.122;5.250;2024-01-27T03:35:24;12.8;;;4.61;;
62457;SDS011;48509;52.122;5.250;2024-01-27T03:38:36;20.0;;;5.2;;
62457;SDS011;48509;52.122;5.250;2024-01-27T03:40:12;15.8;;;5.11;;
62457;SDS011;48509;52.122;5.250;2024-01-27T03:41:48;25.2;;;6.0;;
62457;SDS011;48509;52.122;5.250;2024-01-27T03:45:01;21.7;;;6.2;;
62457;SDS011;48509;52.122;5.250;2024-01-27T03:46:37;22.5;;;5.0;;
62457;SDS011;48509;52.122;5.250;2024-01-27T03:48:13;23.2;;;5.11;;
62457;SDS011;48509;52.122;5.250;2024-01-27T03:51:25;17.7;;;5.8;;
62457;SDS011;48509;52.122;5.250;2024-01-27T03:53:01;17.91;;;4.5;;
62457;SDS011;48509;52.122;5.250;2024-01-27T03:54:37;19.2;;;5.8;;
62457;SDS011;48509;52.122;5.250;2024-01-27T03:57:50;20.3;;;5.5;;
62457;SDS011;48509;52.122;5.250;2024-01-27T03:59:26;18.5;;;4.8;;
62457;SDS011;48509;52.122;5.250;2024-01-27T04:01:02;22.5;;;5.2;;
62457;SDS011;48509;52.122;5.250;2024-01-27T04:02:38;22.8;;;5.9;;
62457;SDS011;48509;52.122;5.250;2024-01-27T04:05:50;16.8;;;5.7;;
62457;SDS011;48509;52.122;5.250;2024-01-27T04:07:26;21.4;;;5.9;;
62457;SDS011;48509;52.122;5.250;2024-01-27T04:09:03;18.5;;;5.5;;
62457;SDS011;48509;52.122;5.250;2024-01-27T04:12:15;14.8;;;4.5;;
62457;SDS011;48509;52.122;5.250;2024-01-27T04:13:51;19.3;;;5.5;;
62457;SDS011;48509;52.122;5.250;2024-01-27T04:15:32;33.6;;;7.0;;
62457;SDS011;48509;52.122;5.250;2024-01-27T04:18:45;19.11;;;5.6;;
62457;SDS011;48509;52.122;5.250;2024-01-27T04:20:22;22.3;;;5.9;;
62457;SDS011;48509;52.122;5.250;2024-01-27T04:21:58;28.2;;;6.9;;
62457;SDS011;48509;52.122;5.250;2024-01-27T04:23:34;17.3;;;5.6;;
62457;SDS011;48509;52.122;5.250;2024-01-27T04:26:47;23.0;;;5.3;;
62457;SDS011;48509;52.122;5.250;2024-01-27T04:28:23;29.6;;;6.2;;
62457;SDS011;48509;52.122;5.250;2024-01-27T04:29:59;21.2;;;5.5;;
62457;SDS011;48509;52.122;5.250;2024-01-27T04:33:15;19.0;;;5.2;;
62457;SDS011;48509;52.122;5.250;2024-01-27T04:34:51;18.3;;;5.11;;
62457;SDS011;48509;52.122;5.250;2024-01-27T04:36:28;23.7;;;6.0;;
62457;SDS011;48509;52.122;5.250;2024-01-27T04:39:44;20.0;;;5.5;;
62457;SDS011;48509;52.122;5.250;2024-01-27T04:41:20;19.8;;;5.6;;
62457;SDS011;48509;52.122;5.250;2024-01-27T04:42:56;30.4;;;6.4;;
62457;SDS011;48509;52.122;5.250;2024-01-27T04:44:32;28.5;;;6.4;;
62457;SDS011;48509;52.122;5.250;2024-01-27T04:47:44;19.3;;;5.4;;
62457;SDS011;48509;52.122;5.250;2024-01-27T04:49:21;25.2;;;5.2;;
62457;SDS011;48509;52.122;5.250;2024-01-27T04:50:57;20.6;;;5.8;;
62457;SDS011;48509;52.122;5.250;2024-01-27T04:54:09;20.8;;;5.6;;
62457;SDS011;48509;52.122;5.250;2024-01-27T04:55:45;23.9;;;6.4;;
62457;SDS011;48509;52.122;5.250;2024-01-27T04:57:21;25.0;;;6.2;;
62457;SDS011;48509;52.122;5.250;2024-01-27T05:00:36;18.3;;;5.7;;
62457;SDS011;48509;52.122;5.250;2024-01-27T05:02:12;18.2;;;5.4;;
62457;SDS011;48509;52.122;5.250;2024-01-27T05:03:48;19.0;;;6.2;;
62457;SDS011;48509;52.122;5.250;2024-01-27T05:05:25;20.7;;;7.4;;
62457;SDS011;48509;52.122;5.250;2024-01-27T05:08:37;17.0;;;5.6;;
62457;SDS011;48509;52.122;5.250;2024-01-27T05:10:14;19.0;;;6.2;;
62457;SDS011;48509;52.122;5.250;2024-01-27T05:11:54;16.4;;;6.3;;
62457;SDS011;48509;52.122;5.250;2024-01-27T05:15:07;19.7;;;6.9;;
62457;SDS011;48509;52.122;5.250;2024-01-27T05:16:43;21.5;;;7.2;;
62457;SDS011;48509;52.122;5.250;2024-01-27T05:18:20;17.11;;;7.7;;
62457;SDS011;48509;52.122;5.250;2024-01-27T05:21:32;17.3;;;6.4;;
62457;SDS011;48509;52.122;5.250;2024-01-27T05:23:12;22.8;;;7.6;;
62457;SDS011;48509;52.122;5.250;2024-01-27T05:24:48;25.5;;;7.4;;
62457;SDS011;48509;52.122;5.250;2024-01-27T05:26:24;25.0;;;7.9;;
62457;SDS011;48509;52.122;5.250;2024-01-27T05:29:37;23.6;;;7.9;;
62457;SDS011;48509;52.122;5.250;2024-01-27T05:31:13;22.2;;;7.7;;
62457;SDS011;48509;52.122;5.250;2024-01-27T05:32:49;22.0;;;8.4;;
62457;SDS011;48509;52.122;5.250;2024-01-27T05:36:02;21.0;;;8.2;;
62457;SDS011;48509;52.122;5.250;2024-01-27T05:37:38;16.61;;;6.1;;
62457;SDS011;48509;52.122;5.250;2024-01-27T05:39:14;23.1;;;8.31;;
62457;SDS011;48509;52.122;5.250;2024-01-27T05:42:26;18.41;;;7.6;;
62457;SDS011;48509;52.122;5.250;2024-01-27T05:44:02;19.7;;;8.0;;
62457;SDS011;48509;52.122;5.250;2024-01-27T05:45:38;23.0;;;9.0;;
62457;SDS011;48509;52.122;5.250;2024-01-27T05:47:14;25.8;;;11.5;;
62457;SDS011;48509;52.122;5.250;2024-01-27T05:50:28;26.2;;;9.21;;
62457;SDS011;48509;52.122;5.250;2024-01-27T05:52:04;20.0;;;9.6;;
62457;SDS011;48509;52.122;5.250;2024-01-27T05:53:41;15.4;;;7.1;;
62457;SDS011;48509;52.122;5.250;2024-01-27T05:56:53;18.2;;;8.31;;
62457;SDS011;48509;52.122;5.250;2024-01-27T05:58:29;23.6;;;11.0;;
62457;SDS011;48509;52.122;5.250;2024-01-27T06:00:06;32.1;;;14.5;;
62457;SDS011;48509;52.122;5.250;2024-01-27T06:03:20;18.61;;;8.81;;
62457;SDS011;48509;52.122;5.250;2024-01-27T06:04:56;21.7;;;8.71;;
62457;SDS011;48509;52.122;5.250;2024-01-27T06:06:32;25.5;;;10.4;;
62457;SDS011;48509;52.122;5.250;2024-01-27T06:08:08;33.4;;;10.9;;
62457;SDS011;48509;52.122;5.250;2024-01-27T06:11:23;19.5;;;10.4;;
62457;SDS011;48509;52.122;5.250;2024-01-27T06:13:01;24.9;;;10.7;;
62457;SDS011;48509;52.122;5.250;2024-01-27T06:14:36;29.0;;;12.1;;
62457;SDS011;48509;52.122;5.250;2024-01-27T06:17:48;27.8;;;13.0;;
62457;SDS011;48509;52.122;5.250;2024-01-27T06:19:25;29.5;;;12.6;;
62457;SDS011;48509;52.122;5.250;2024-01-27T06:21:01;24.9;;;12.6;;
62457;SDS011;48509;52.122;5.250;2024-01-27T06:24:14;34.6;;;15.9;;
62457;SDS011;48509;52.122;5.250;2024-01-27T06:25:50;23.3;;;10.4;;
62457;SDS011;48509;52.122;5.250;2024-01-27T06:27:26;25.7;;;9.5;;
62457;SDS011;48509;52.122;5.250;2024-01-27T06:29:02;20.5;;;9.81;;
62457;SDS011;48509;52.122;5.250;2024-01-27T06:32:14;24.5;;;11.1;;
62457;SDS011;48509;52.122;5.250;2024-01-27T06:33:50;26.7;;;12.8;;
62457;SDS011;48509;52.122;5.250;2024-01-27T06:35:27;26.7;;;13.0;;
62457;SDS011;48509;52.122;5.250;2024-01-27T06:38:39;25.4;;;12.3;;
62457;SDS011;48509;52.122;5.250;2024-01-27T06:40:15;22.2;;;11.6;;
62457;SDS011;48509;52.122;5.250;2024-01-27T06:41:55;25.4;;;11.9;;
62457;SDS011;48509;52.122;5.250;2024-01-27T06:45:07;28.6;;;13.1;;
62457;SDS011;48509;52.122;5.250;2024-01-27T06:46:43;29.8;;;15.2;;
62457;SDS011;48509;52.122;5.250;2024-01-27T06:48:19;24.6;;;12.5;;
62457;SDS011;48509;52.122;5.250;2024-01-27T06:49:56;29.9;;;13.9;;
62457;SDS011;48509;52.122;5.250;2024-01-27T06:53:08;19.0;;;9.6;;
62457;SDS011;48509;52.122;5.250;2024-01-27T06:56:20;27.2;;;13.6;;
62457;SDS011;48509;52.122;5.250;2024-01-27T06:59:32;28.0;;;12.3;;
62457;SDS011;48509;52.122;5.250;2024-01-27T07:01:08;45.2;;;17.91;;
62457;SDS011;48509;52.122;5.250;2024-01-27T07:02:44;29.0;;;11.9;;
62457;SDS011;48509;52.122;5.250;2024-01-27T07:05:59;39.1;;;18.8;;
62457;SDS011;48509;52.122;5.250;2024-01-27T07:07:35;32.4;;;15.5;;
62457;SDS011;48509;52.122;5.250;2024-01-27T07:09:11;26.8;;;14.4;;
62457;SDS011;48509;52.122;5.250;2024-01-27T07:12:23;27.3;;;15.1;;
62457;SDS011;48509;52.122;5.250;2024-01-27T07:14:00;31.4;;;12.6;;
62457;SDS011;48509;52.122;5.250;2024-01-27T07:15:37;23.4;;;11.2;;
62457;SDS011;48509;52.122;5.250;2024-01-27T07:17:13;22.0;;;12.3;;
62457;SDS011;48509;52.122;5.250;2024-01-27T07:20:26;25.9;;;13.8;;
62457;SDS011;48509;52.122;5.250;2024-01-27T07:22:02;43.4;;;21.2;;
62457;SDS011;48509;52.122;5.250;2024-01-27T07:23:38;26.0;;;11.2;;
62457;SDS011;48509;52.122;5.250;2024-01-27T07:26:50;20.5;;;11.0;;
62457;SDS011;48509;52.122;5.250;2024-01-27T07:28:26;36.4;;;15.7;;
62457;SDS011;48509;52.122;5.250;2024-01-27T07:30:02;31.5;;;14.6;;
62457;SDS011;48509;52.122;5.250;2024-01-27T07:33:14;37.81;;;17.3;;
62457;SDS011;48509;52.122;5.250;2024-01-27T07:34:51;37.21;;;19.8;;
62457;SDS011;48509;52.122;5.250;2024-01-27T07:36:27;27.6;;;14.6;;
62457;SDS011;48509;52.122;5.250;2024-01-27T07:38:03;26.6;;;12.9;;
62457;SDS011;48509;52.122;5.250;2024-01-27T07:41:16;31.8;;;14.1;;
62457;SDS011;48509;52.122;5.250;2024-01-27T07:42:52;29.9;;;14.5;;
62457;SDS011;48509;52.122;5.250;2024-01-27T07:44:28;34.9;;;15.8;;
62457;SDS011;48509;52.122;5.250;2024-01-27T07:47:41;26.1;;;13.6;;
62457;SDS011;48509;52.122;5.250;2024-01-27T07:49:18;26.8;;;12.6;;
62457;SDS011;48509;52.122;5.250;2024-01-27T07:50:54;26.5;;;13.2;;
62457;SDS011;48509;52.122;5.250;2024-01-27T07:54:06;17.11;;;10.3;;
62457;SDS011;48509;52.122;5.250;2024-01-27T07:55:42;24.2;;;13.3;;
62457;SDS011;48509;52.122;5.250;2024-01-27T07:57:18;33.71;;;17.61;;
62457;SDS011;48509;52.122;5.250;2024-01-27T08:00:30;33.8;;;17.5;;
62457;SDS011;48509;52.122;5.250;2024-01-27T08:02:06;32.21;;;14.5;;
62457;SDS011;48509;52.122;5.250;2024-01-27T08:03:43;25.3;;;13.7;;
62457;SDS011;48509;52.122;5.250;2024-01-27T08:05:19;37.5;;;17.8;;
62457;SDS011;48509;52.122;5.250;2024-01-27T08:08:31;23.3;;;13.0;;
62457;SDS011;48509;52.122;5.250;2024-01-27T08:10:07;36.71;;;20.8;;
62457;SDS011;48509;52.122;5.250;2024-01-27T08:11:43;35.5;;;19.91;;
62457;SDS011;48509;52.122;5.250;2024-01-27T08:14:55;30.4;;;16.11;;
62457;SDS011;48509;52.122;5.250;2024-01-27T08:16:31;31.9;;;17.2;;
62457;SDS011;48509;52.122;5.250;2024-01-27T08:18:08;35.1;;;18.11;;
62457;SDS011;48509;52.122;5.250;2024-01-27T08:21:20;42.0;;;24.1;;
62457;SDS011;48509;52.122;5.250;2024-01-27T08:22:56;31.9;;;17.3;;
62457;SDS011;48509;52.122;5.250;2024-01-27T08:24:32;33.0;;;18.61;;
62457;SDS011;48509;52.122;5.250;2024-01-27T08:27:44;39.81;;;23.0;;
62457;SDS011;48509;52.122;5.250;2024-01-27T08:29:20;40.71;;;22.4;;
62457;SDS011;48509;52.122;5.250;2024-01-27T08:30:56;34.31;;;16.61;;
62457;SDS011;48509;52.122;5.250;2024-01-27T08:32:32;34.31;;;20.9;;
62457;SDS011;48509;52.122;5.250;2024-01-27T08:35:46;32.0;;;15.5;;
62457;SDS011;48509;52.122;5.250;2024-01-27T08:37:22;45.0;;;23.2;;
62457;SDS011;48509;52.122;5.250;2024-01-27T08:38:58;41.3;;;21.9;;
62457;SDS011;48509;52.122;5.250;2024-01-27T08:42:11;27.1;;;15.6;;
62457;SDS011;48509;52.122;5.250;2024-01-27T08:43:47;34.4;;;18.2;;
62457;SDS011;48509;52.122;5.250;2024-01-27T08:45:23;34.6;;;16.9;;
62457;SDS011;48509;52.122;5.250;2024-01-27T08:48:36;36.31;;;20.0;;
62457;SDS011;48509;52.122;5.250;2024-01-27T08:50:12;31.4;;;19.2;;
62457;SDS011;48509;52.122;5.250;2024-01-27T08:51:48;31.0;;;17.2;;
62457;SDS011;48509;52.122;5.250;2024-01-27T08:53:24;27.5;;;15.4;;
62457;SDS011;48509;52.122;5.250;2024-01-27T08:56:38;30.6;;;15.7;;
62457;SDS011;48509;52.122;5.250;2024-01-27T08:58:15;29.9;;;17.91;;
62457;SDS011;48509;52.122;5.250;2024-01-27T08:59:51;28.1;;;15.1;;
62457;SDS011;48509;52.122;5.250;2024-01-27T09:03:04;31.8;;;15.1;;
62457;SDS011;48509;52.122;5.250;2024-01-27T09:04:40;30.1;;;15.2;;
62457;SDS011;48509;52.122;5.250;2024-01-27T09:06:16;32.9;;;18.8;;
62457;SDS011;48509;52.122;5.250;2024-01-27T09:09:28;31.0;;;17.11;;
62457;SDS011;48509;52.122;5.250;2024-01-27T09:11:04;24.9;;;15.1;;
62457;SDS011;48509;52.122;5.250;2024-01-27T09:12:41;32.0;;;16.61;;
62457;SDS011;48509;52.122;5.250;2024-01-27T09:14:17;31.3;;;17.0;;
62457;SDS011;48509;52.122;5.250;2024-01-27T09:17:31;40.81;;;21.6;;
62457;SDS011;48509;52.122;5.250;2024-01-27T09:19:10;25.5;;;15.3;;
62457;SDS011;48509;52.122;5.250;2024-01-27T09:20:46;26.7;;;14.7;;
62457;SDS011;48509;52.122;5.250;2024-01-27T09:23:58;33.3;;;17.11;;
62457;SDS011;48509;52.122;5.250;2024-01-27T09:25:34;30.1;;;15.3;;
62457;SDS011;48509;52.122;5.250;2024-01-27T09:27:10;31.6;;;16.3;;
62457;SDS011;48509;52.122;5.250;2024-01-27T09:30:22;30.7;;;16.11;;
62457;SDS011;48509;52.122;5.250;2024-01-27T09:31:58;27.0;;;16.4;;
62457;SDS011;48509;52.122;5.250;2024-01-27T09:33:35;30.2;;;16.61;;
62457;SDS011;48509;52.122;5.250;2024-01-27T09:35:11;31.0;;;16.9;;
62457;SDS011;48509;52.122;5.250;2024-01-27T09:38:23;32.8;;;17.61;;
62457;SDS011;48509;52.122;5.250;2024-01-27T09:39:59;37.21;;;18.41;;
62457;SDS011;48509;52.122;5.250;2024-01-27T09:41:35;36.31;;;15.4;;
62457;SDS011;48509;52.122;5.250;2024-01-27T09:44:49;32.6;;;15.3;;
62457;SDS011;48509;52.122;5.250;2024-01-27T09:46:29;27.4;;;14.4;;
62457;SDS011;48509;52.122;5.250;2024-01-27T09:48:06;28.6;;;15.1;;
62457;SDS011;48509;52.122;5.250;2024-01-27T09:51:24;26.4;;;14.4;;
62457;SDS011;48509;52.122;5.250;2024-01-27T09:53:05;31.6;;;15.3;;
62457;SDS011;48509;52.122;5.250;2024-01-27T09:54:41;32.3;;;14.9;;
62457;SDS011;48509;52.122;5.250;2024-01-27T09:56:17;34.0;;;15.3;;
62457;SDS011;48509;52.122;5.250;2024-01-27T09:59:29;34.6;;;14.4;;
62457;SDS011;48509;52.122;5.250;2024-01-27T10:01:08;27.7;;;15.5;;
62457;SDS011;48509;52.122;5.250;2024-01-27T10:02:45;30.9;;;14.4;;
62457;SDS011;48509;52.122;5.250;2024-01-27T10:06:02;36.81;;;14.8;;
62457;SDS011;48509;52.122;5.250;2024-01-27T10:07:39;27.9;;;14.6;;
62457;SDS011;48509;52.122;5.250;2024-01-27T10:09:16;34.4;;;15.5;;
62457;SDS011;48509;52.122;5.250;2024-01-27T10:10:53;36.0;;;16.11;;
62457;SDS011;48509;52.122;5.250;2024-01-27T10:14:07;39.0;;;16.4;;
62457;SDS011;48509;52.122;5.250;2024-01-27T10:15:43;33.21;;;14.5;;
62457;SDS011;48509;52.122;5.250;2024-01-27T10:17:20;34.5;;;14.9;;
62457;SDS011;48509;52.122;5.250;2024-01-27T10:20:36;33.6;;;15.8;;
62457;SDS011;48509;52.122;5.250;2024-01-27T10:22:12;35.5;;;15.4;;
62457;SDS011;48509;52.122;5.250;2024-01-27T10:23:48;28.5;;;15.4;;
62457;SDS011;48509;52.122;5.250;2024-01-27T10:25:24;34.4;;;15.1;;
62457;SDS011;48509;52.122;5.250;2024-01-27T10:28:37;30.6;;;15.4;;
62457;SDS011;48509;52.122;5.250;2024-01-27T10:30:15;35.0;;;15.3;;
62457;SDS011;48509;52.122;5.250;2024-01-27T10:31:53;28.1;;;14.9;;
62457;SDS011;48509;52.122;5.250;2024-01-27T10:35:05;28.7;;;13.5;;
62457;SDS011;48509;52.122;5.250;2024-01-27T10:36:43;30.4;;;14.1;;
62457;SDS011;48509;52.122;5.250;2024-01-27T10:38:20;26.0;;;13.5;;
62457;SDS011;48509;52.122;5.250;2024-01-27T10:41:37;27.6;;;13.6;;
62457;SDS011;48509;52.122;5.250;2024-01-27T10:43:14;29.5;;;13.6;;
62457;SDS011;48509;52.122;5.250;2024-01-27T10:44:53;29.5;;;13.6;;
62457;SDS011;48509;52.122;5.250;2024-01-27T10:46:32;38.0;;;14.0;;
62457;SDS011;48509;52.122;5.250;2024-01-27T10:49:46;30.8;;;13.4;;
62457;SDS011;48509;52.122;5.250;2024-01-27T10:51:26;26.6;;;12.7;;
62457;SDS011;48509;52.122;5.250;2024-01-27T10:53:08;34.5;;;13.0;;
62457;SDS011;48509;52.122;5.250;2024-01-27T10:54:51;26.4;;;12.9;;
62457;SDS011;48509;52.122;5.250;2024-01-27T10:58:07;30.6;;;13.3;;
62457;SDS011;48509;52.122;5.250;2024-01-27T10:59:44;30.6;;;13.1;;
62457;SDS011;48509;52.122;5.250;2024-01-27T11:01:23;36.81;;;13.6;;
62457;SDS011;48509;52.122;5.250;2024-01-27T11:04:38;31.5;;;13.3;;
62457;SDS011;48509;52.122;5.250;2024-01-27T11:06:14;36.21;;;13.7;;
62457;SDS011;48509;52.122;5.250;2024-01-27T11:07:51;31.9;;;13.1;;
62457;SDS011;48509;52.122;5.250;2024-01-27T11:09:27;33.21;;;12.8;;
62457;SDS011;48509;52.122;5.250;2024-01-27T11:12:41;35.31;;;13.9;;
62457;SDS011;48509;52.122;5.250;2024-01-27T11:14:17;32.71;;;13.6;;
62457;SDS011;48509;52.122;5.250;2024-01-27T11:15:53;32.6;;;13.0;;
62457;SDS011;48509;52.122;5.250;2024-01-27T11:19:14;27.7;;;12.1;;
62457;SDS011;48509;52.122;5.250;2024-01-27T11:20:53;27.7;;;12.1;;
62457;SDS011;48509;52.122;5.250;2024-01-27T11:22:29;26.6;;;12.4;;
62457;SDS011;48509;52.122;5.250;2024-01-27T11:24:13;27.3;;;11.8;;
62457;SDS011;48509;52.122;5.250;2024-01-27T11:27:38;34.0;;;12.3;;
62457;SDS011;48509;52.122;5.250;2024-01-27T11:29:15;27.8;;;11.3;;
62457;SDS011;48509;52.122;5.250;2024-01-27T11:30:53;27.7;;;10.6;;
62457;SDS011;48509;52.122;5.250;2024-01-27T11:32:29;26.6;;;10.0;;
62457;SDS011;48509;52.122;5.250;2024-01-27T11:35:47;24.4;;;10.3;;
62457;SDS011;48509;52.122;5.250;2024-01-27T11:37:24;21.1;;;10.3;;
62457;SDS011;48509;52.122;5.250;2024-01-27T11:39:22;29.0;;;10.9;;
62457;SDS011;48509;52.122;5.250;2024-01-27T11:40:59;23.7;;;9.4;;
62457;SDS011;48509;52.122;5.250;2024-01-27T11:44:12;27.1;;;10.0;;
62457;SDS011;48509;52.122;5.250;2024-01-27T11:45:55;25.7;;;10.4;;
62457;SDS011;48509;52.122;5.250;2024-01-27T11:47:32;28.1;;;9.9;;
62457;SDS011;48509;52.122;5.250;2024-01-27T11:49:09;22.2;;;9.71;;
62457;SDS011;48509;52.122;5.250;2024-01-27T11:52:39;18.8;;;9.5;;
62457;SDS011;48509;52.122;5.250;2024-01-27T11:54:15;24.5;;;9.1;;
62457;SDS011;48509;52.122;5.250;2024-01-27T11:55:53;24.9;;;9.1;;
62457;SDS011;48509;52.122;5.250;2024-01-27T11:57:30;26.4;;;9.4;;
62457;SDS011;48509;52.122;5.250;2024-01-27T12:00:42;27.9;;;9.0;;
62457;SDS011;48509;52.122;5.250;2024-01-27T12:02:18;23.3;;;9.31;;
62457;SDS011;48509;52.122;5.250;2024-01-27T12:03:54;24.1;;;8.71;;
62457;SDS011;48509;52.122;5.250;2024-01-27T12:07:07;26.7;;;8.9;;
62457;SDS011;48509;52.122;5.250;2024-01-27T12:08:43;26.1;;;8.71;;
62457;SDS011;48509;52.122;5.250;2024-01-27T12:10:20;28.1;;;8.31;;
62457;SDS011;48509;52.122;5.250;2024-01-27T12:13:32;24.9;;;8.81;;
62457;SDS011;48509;52.122;5.250;2024-01-27T12:15:08;19.11;;;7.1;;
62457;SDS011;48509;52.122;5.250;2024-01-27T12:16:44;22.1;;;8.0;;
62457;SDS011;48509;52.122;5.250;2024-01-27T12:19:56;20.41;;;8.0;;
62457;SDS011;48509;52.122;5.250;2024-01-27T12:21:33;33.5;;;8.2;;
62457;SDS011;48509;52.122;5.250;2024-01-27T12:23:09;24.9;;;7.9;;
62457;SDS011;48509;52.122;5.250;2024-01-27T12:24:45;23.6;;;7.2;;
62457;SDS011;48509;52.122;5.250;2024-01-27T12:28:01;27.7;;;7.0;;
62457;SDS011;48509;52.122;5.250;2024-01-27T12:29:40;23.4;;;6.9;;
62457;SDS011;48509;52.122;5.250;2024-01-27T12:31:16;21.0;;;6.6;;
62457;SDS011;48509;52.122;5.250;2024-01-27T12:34:29;19.7;;;5.9;;
62457;SDS011;48509;52.122;5.250;2024-01-27T12:36:07;22.6;;;7.0;;
62457;SDS011;48509;52.122;5.250;2024-01-27T12:37:43;18.7;;;6.8;;
62457;SDS011;48509;52.122;5.250;2024-01-27T12:39:20;22.3;;;6.6;;
62457;SDS011;48509;52.122;5.250;2024-01-27T12:42:32;19.8;;;6.2;;
62457;SDS011;48509;52.122;5.250;2024-01-27T12:44:08;22.2;;;5.8;;
62457;SDS011;48509;52.122;5.250;2024-01-27T12:45:44;16.61;;;6.0;;